Ennis, Ireland
Current Conditions -  °F | °C
As of 12:00 PM on Wednesday 28 Jan 2015 (Local Time) from EINN Reporting Station
Broken Clouds Broken Clouds  
Wind Chill: 25°   Ceiling: 1800
Heat Index: 37°   Visibility: 6mi
Dew Point: 32°   Wind: 28mph
Humidity: 81%   Direction: 270°W
Pressure: 29.77"   Gusts: 41mph
Location:  52.86°N, 8.99°W
Report Text: EINN 281200Z 27024G36KT 9000 SCT010 BKN018CB 03/00 Q1008 NOSIG
Loading
Personal Weather Stations






























Interactive Weather Map New forecast layout! Learn more

10-Day Weather Forecast

Advertisements
Track Severe Weather on mobile